Colton, Oregon
Current Conditions -  °F | °C
As of 11:53 PM on Thursday 18 Dec 2014 (Local Time) from KUAO Reporting Station
Light Rain Light Rain  
Wind Chill: 48°   Ceiling: 4700
Heat Index: 48°   Visibility: 7mi
Dew Point: 45°   Wind: 3mph
Humidity: 89%   Direction: 210°SSW
Pressure: 29.89"   Gusts: NA
Location:  45.17°N, 122.44°W
Report Text: KUAO 190753Z AUTO 21003KT 7SM -RA OVC047 09/07 A2989 RMK AO2 SLP122 P0010 T00890072 401110039
Loading
Personal Weather Stations






























Interactive Weather Map New forecast layout! Learn more

10-Day Weather Forecast

Advertisements
Track Severe Weather on mobile